sensor_id;sensor_type;location;lat;lon;timestamp;P1;durP1;ratioP1;P2;durP2;ratioP2
23668;SDS011;12011;47.422;15.018;2023-04-15T00:01:50;0.14;;;0.13;;
23668;SDS011;12011;47.422;15.018;2023-04-15T00:04:20;0.19;;;0.18;;
23668;SDS011;12011;47.422;15.018;2023-04-15T00:06:50;0.16;;;0.16;;
23668;SDS011;12011;47.422;15.018;2023-04-15T00:09:20;0.20;;;0.19;;
23668;SDS011;12011;47.422;15.018;2023-04-15T00:11:50;0.19;;;0.18;;
23668;SDS011;12011;47.422;15.018;2023-04-15T00:14:19;0.34;;;0.33;;
23668;SDS011;12011;47.422;15.018;2023-04-15T00:16:51;0.15;;;0.15;;
23668;SDS011;12011;47.422;15.018;2023-04-15T00:19:22;0.13;;;0.13;;
23668;SDS011;12011;47.422;15.018;2023-04-15T00:21:52;0.16;;;0.16;;
23668;SDS011;12011;47.422;15.018;2023-04-15T00:24:21;0.15;;;0.15;;
23668;SDS011;12011;47.422;15.018;2023-04-15T00:26:51;0.09;;;0.09;;
23668;SDS011;12011;47.422;15.018;2023-04-15T00:29:21;0.17;;;0.17;;
23668;SDS011;12011;47.422;15.018;2023-04-15T00:31:53;0.31;;;0.30;;
23668;SDS011;12011;47.422;15.018;2023-04-15T00:34:22;0.17;;;0.16;;
23668;SDS011;12011;47.422;15.018;2023-04-15T00:36:52;0.16;;;0.16;;
23668;SDS011;12011;47.422;15.018;2023-04-15T00:39:22;0.16;;;0.16;;
23668;SDS011;12011;47.422;15.018;2023-04-15T00:41:52;0.12;;;0.11;;
23668;SDS011;12011;47.422;15.018;2023-04-15T00:44:23;0.20;;;0.19;;
23668;SDS011;12011;47.422;15.018;2023-04-15T00:46:55;0.19;;;0.18;;
23668;SDS011;12011;47.422;15.018;2023-04-15T00:49:26;0.16;;;0.15;;
23668;SDS011;12011;47.422;15.018;2023-04-15T00:51:56;0.17;;;0.16;;
23668;SDS011;12011;47.422;15.018;2023-04-15T00:54:26;0.14;;;0.14;;
23668;SDS011;12011;47.422;15.018;2023-04-15T00:56:56;0.11;;;0.11;;
23668;SDS011;12011;47.422;15.018;2023-04-15T00:59:25;0.17;;;0.16;;
23668;SDS011;12011;47.422;15.018;2023-04-15T01:01:58;0.08;;;0.08;;
23668;SDS011;12011;47.422;15.018;2023-04-15T01:04:28;0.08;;;0.08;;
23668;SDS011;12011;47.422;15.018;2023-04-15T01:06:58;0.15;;;0.14;;
23668;SDS011;12011;47.422;15.018;2023-04-15T01:09:28;0.17;;;0.16;;
23668;SDS011;12011;47.422;15.018;2023-04-15T01:11:58;0.12;;;0.11;;
23668;SDS011;12011;47.422;15.018;2023-04-15T01:14:28;0.17;;;0.17;;
23668;SDS011;12011;47.422;15.018;2023-04-15T01:17:01;0.11;;;0.10;;
23668;SDS011;12011;47.422;15.018;2023-04-15T01:19:31;0.14;;;0.13;;
23668;SDS011;12011;47.422;15.018;2023-04-15T01:22:01;0.11;;;0.11;;
23668;SDS011;12011;47.422;15.018;2023-04-15T01:24:31;0.04;;;0.04;;
23668;SDS011;12011;47.422;15.018;2023-04-15T01:27:04;0.11;;;0.11;;
23668;SDS011;12011;47.422;15.018;2023-04-15T01:29:36;0.17;;;0.16;;
23668;SDS011;12011;47.422;15.018;2023-04-15T01:32:06;0.13;;;0.12;;
23668;SDS011;12011;47.422;15.018;2023-04-15T01:34:54;0.06;;;0.06;;
23668;SDS011;12011;47.422;15.018;2023-04-15T01:37:42;0.13;;;0.13;;
23668;SDS011;12011;47.422;15.018;2023-04-15T01:40:15;0.12;;;0.11;;
23668;SDS011;12011;47.422;15.018;2023-04-15T01:42:49;0.13;;;0.13;;
23668;SDS011;12011;47.422;15.018;2023-04-15T01:45:20;0.14;;;0.13;;
23668;SDS011;12011;47.422;15.018;2023-04-15T01:47:52;0.11;;;0.11;;
23668;SDS011;12011;47.422;15.018;2023-04-15T01:50:23;0.08;;;0.07;;
23668;SDS011;12011;47.422;15.018;2023-04-15T01:52:55;0.06;;;0.06;;
23668;SDS011;12011;47.422;15.018;2023-04-15T01:55:26;0.08;;;0.08;;
23668;SDS011;12011;47.422;15.018;2023-04-15T01:58:00;0.08;;;0.07;;
23668;SDS011;12011;47.422;15.018;2023-04-15T02:00:31;0.28;;;0.27;;
23668;SDS011;12011;47.422;15.018;2023-04-15T02:03:03;0.10;;;0.10;;
23668;SDS011;12011;47.422;15.018;2023-04-15T02:05:34;0.40;;;0.37;;
23668;SDS011;12011;47.422;15.018;2023-04-15T02:08:04;1.09;;;1.03;;
23668;SDS011;12011;47.422;15.018;2023-04-15T02:10:38;1.58;;;1.52;;
23668;SDS011;12011;47.422;15.018;2023-04-15T02:13:11;1.14;;;1.11;;
23668;SDS011;12011;47.422;15.018;2023-04-15T02:15:45;0.26;;;0.25;;
23668;SDS011;12011;47.422;15.018;2023-04-15T02:18:19;0.19;;;0.19;;
23668;SDS011;12011;47.422;15.018;2023-04-15T02:20:50;0.32;;;0.32;;
23668;SDS011;12011;47.422;15.018;2023-04-15T02:23:23;0.40;;;0.40;;
23668;SDS011;12011;47.422;15.018;2023-04-15T02:25:53;0.62;;;0.61;;
23668;SDS011;12011;47.422;15.018;2023-04-15T02:28:28;0.48;;;0.47;;
23668;SDS011;12011;47.422;15.018;2023-04-15T02:30:59;0.23;;;0.22;;
23668;SDS011;12011;47.422;15.018;2023-04-15T02:33:31;0.16;;;0.15;;
23668;SDS011;12011;47.422;15.018;2023-04-15T02:36:03;0.20;;;0.20;;
23668;SDS011;12011;47.422;15.018;2023-04-15T02:38:35;0.11;;;0.11;;
23668;SDS011;12011;47.422;15.018;2023-04-15T02:41:08;0.15;;;0.15;;
23668;SDS011;12011;47.422;15.018;2023-04-15T02:43:42;0.11;;;0.11;;
23668;SDS011;12011;47.422;15.018;2023-04-15T02:46:14;0.45;;;0.45;;
23668;SDS011;12011;47.422;15.018;2023-04-15T02:48:45;0.23;;;0.23;;
23668;SDS011;12011;47.422;15.018;2023-04-15T02:51:16;0.11;;;0.11;;
23668;SDS011;12011;47.422;15.018;2023-04-15T02:53:49;0.10;;;0.10;;
23668;SDS011;12011;47.422;15.018;2023-04-15T02:56:20;0.14;;;0.14;;
23668;SDS011;12011;47.422;15.018;2023-04-15T02:58:53;0.26;;;0.25;;
23668;SDS011;12011;47.422;15.018;2023-04-15T03:01:24;0.13;;;0.13;;
23668;SDS011;12011;47.422;15.018;2023-04-15T03:03:55;0.13;;;0.13;;
23668;SDS011;12011;47.422;15.018;2023-04-15T03:06:25;0.12;;;0.12;;
23668;SDS011;12011;47.422;15.018;2023-04-15T03:08:57;0.38;;;0.38;;
23668;SDS011;12011;47.422;15.018;2023-04-15T03:11:32;0.75;;;0.75;;
23668;SDS011;12011;47.422;15.018;2023-04-15T03:14:11;0.86;;;0.85;;
23668;SDS011;12011;47.422;15.018;2023-04-15T03:16:45;1.16;;;1.14;;
23668;SDS011;12011;47.422;15.018;2023-04-15T03:19:17;0.62;;;0.61;;
23668;SDS011;12011;47.422;15.018;2023-04-15T03:21:48;0.64;;;0.64;;
23668;SDS011;12011;47.422;15.018;2023-04-15T03:24:19;0.30;;;0.30;;
23668;SDS011;12011;47.422;15.018;2023-04-15T03:26:50;0.10;;;0.10;;
23668;SDS011;12011;47.422;15.018;2023-04-15T03:29:26;0.09;;;0.09;;
23668;SDS011;12011;47.422;15.018;2023-04-15T03:31:56;0.19;;;0.19;;
23668;SDS011;12011;47.422;15.018;2023-04-15T03:34:31;0.14;;;0.14;;
23668;SDS011;12011;47.422;15.018;2023-04-15T03:37:02;0.07;;;0.07;;
23668;SDS011;12011;47.422;15.018;2023-04-15T03:39:34;0.26;;;0.26;;
23668;SDS011;12011;47.422;15.018;2023-04-15T03:42:05;0.19;;;0.19;;
23668;SDS011;12011;47.422;15.018;2023-04-15T03:44:38;0.14;;;0.14;;
23668;SDS011;12011;47.422;15.018;2023-04-15T03:47:09;0.22;;;0.22;;
23668;SDS011;12011;47.422;15.018;2023-04-15T03:49:40;0.27;;;0.27;;
23668;SDS011;12011;47.422;15.018;2023-04-15T03:52:10;0.24;;;0.24;;
23668;SDS011;12011;47.422;15.018;2023-04-15T03:54:41;0.17;;;0.17;;
23668;SDS011;12011;47.422;15.018;2023-04-15T03:57:12;0.18;;;0.18;;
23668;SDS011;12011;47.422;15.018;2023-04-15T03:59:45;0.13;;;0.13;;
23668;SDS011;12011;47.422;15.018;2023-04-15T04:02:16;0.11;;;0.11;;
23668;SDS011;12011;47.422;15.018;2023-04-15T04:04:48;0.09;;;0.09;;
23668;SDS011;12011;47.422;15.018;2023-04-15T04:07:19;0.08;;;0.08;;
23668;SDS011;12011;47.422;15.018;2023-04-15T04:09:52;0.09;;;0.09;;
23668;SDS011;12011;47.422;15.018;2023-04-15T04:12:23;0.10;;;0.10;;
23668;SDS011;12011;47.422;15.018;2023-04-15T04:14:56;0.10;;;0.10;;
23668;SDS011;12011;47.422;15.018;2023-04-15T04:17:27;0.12;;;0.12;;
23668;SDS011;12011;47.422;15.018;2023-04-15T04:19:58;0.10;;;0.10;;
23668;SDS011;12011;47.422;15.018;2023-04-15T04:22:29;0.17;;;0.17;;
23668;SDS011;12011;47.422;15.018;2023-04-15T04:24:59;0.27;;;0.27;;
23668;SDS011;12011;47.422;15.018;2023-04-15T04:27:30;0.21;;;0.21;;
23668;SDS011;12011;47.422;15.018;2023-04-15T04:30:04;0.23;;;0.23;;
23668;SDS011;12011;47.422;15.018;2023-04-15T04:32:36;0.21;;;0.21;;
23668;SDS011;12011;47.422;15.018;2023-04-15T04:35:07;0.20;;;0.20;;
23668;SDS011;12011;47.422;15.018;2023-04-15T04:37:38;0.23;;;0.23;;
23668;SDS011;12011;47.422;15.018;2023-04-15T04:40:10;0.13;;;0.13;;
23668;SDS011;12011;47.422;15.018;2023-04-15T04:42:42;0.09;;;0.09;;
23668;SDS011;12011;47.422;15.018;2023-04-15T04:45:15;0.16;;;0.16;;
23668;SDS011;12011;47.422;15.018;2023-04-15T04:47:46;0.26;;;0.25;;
23668;SDS011;12011;47.422;15.018;2023-04-15T04:50:17;0.25;;;0.24;;
23668;SDS011;12011;47.422;15.018;2023-04-15T04:52:47;0.20;;;0.20;;
23668;SDS011;12011;47.422;15.018;2023-04-15T04:55:18;0.27;;;0.27;;
23668;SDS011;12011;47.422;15.018;2023-04-15T04:57:49;0.27;;;0.27;;
23668;SDS011;12011;47.422;15.018;2023-04-15T05:00:22;0.23;;;0.23;;
23668;SDS011;12011;47.422;15.018;2023-04-15T05:02:53;0.27;;;0.27;;
23668;SDS011;12011;47.422;15.018;2023-04-15T05:05:24;0.30;;;0.30;;
23668;SDS011;12011;47.422;15.018;2023-04-15T05:07:55;0.25;;;0.25;;
23668;SDS011;12011;47.422;15.018;2023-04-15T05:10:26;0.29;;;0.29;;
23668;SDS011;12011;47.422;15.018;2023-04-15T05:12:57;0.49;;;0.49;;
23668;SDS011;12011;47.422;15.018;2023-04-15T05:15:30;0.24;;;0.24;;
23668;SDS011;12011;47.422;15.018;2023-04-15T05:18:02;0.33;;;0.33;;
23668;SDS011;12011;47.422;15.018;2023-04-15T05:20:33;0.28;;;0.28;;
23668;SDS011;12011;47.422;15.018;2023-04-15T05:23:04;0.22;;;0.22;;
23668;SDS011;12011;47.422;15.018;2023-04-15T05:25:35;0.20;;;0.20;;
23668;SDS011;12011;47.422;15.018;2023-04-15T05:28:06;0.30;;;0.30;;
23668;SDS011;12011;47.422;15.018;2023-04-15T05:30:39;0.23;;;0.23;;
23668;SDS011;12011;47.422;15.018;2023-04-15T05:33:11;0.22;;;0.22;;
23668;SDS011;12011;47.422;15.018;2023-04-15T05:35:42;0.16;;;0.16;;
23668;SDS011;12011;47.422;15.018;2023-04-15T05:38:12;0.34;;;0.33;;
23668;SDS011;12011;47.422;15.018;2023-04-15T05:40:43;0.37;;;0.37;;
23668;SDS011;12011;47.422;15.018;2023-04-15T05:43:14;0.28;;;0.28;;
23668;SDS011;12011;47.422;15.018;2023-04-15T05:45:47;0.28;;;0.28;;
23668;SDS011;12011;47.422;15.018;2023-04-15T05:48:18;0.37;;;0.37;;
23668;SDS011;12011;47.422;15.018;2023-04-15T05:50:49;0.32;;;0.32;;
23668;SDS011;12011;47.422;15.018;2023-04-15T05:53:19;0.23;;;0.23;;
23668;SDS011;12011;47.422;15.018;2023-04-15T05:55:50;0.67;;;0.66;;
23668;SDS011;12011;47.422;15.018;2023-04-15T05:58:21;0.74;;;0.73;;
23668;SDS011;12011;47.422;15.018;2023-04-15T06:00:55;0.61;;;0.60;;
23668;SDS011;12011;47.422;15.018;2023-04-15T06:03:26;0.43;;;0.42;;
23668;SDS011;12011;47.422;15.018;2023-04-15T06:05:57;0.61;;;0.59;;
23668;SDS011;12011;47.422;15.018;2023-04-15T06:08:29;0.53;;;0.52;;
23668;SDS011;12011;47.422;15.018;2023-04-15T06:11:00;0.72;;;0.70;;
23668;SDS011;12011;47.422;15.018;2023-04-15T06:13:31;0.72;;;0.70;;
23668;SDS011;12011;47.422;15.018;2023-04-15T06:16:05;0.79;;;0.77;;
23668;SDS011;12011;47.422;15.018;2023-04-15T06:18:36;0.69;;;0.68;;
23668;SDS011;12011;47.422;15.018;2023-04-15T06:21:07;1.03;;;1.02;;
23668;SDS011;12011;47.422;15.018;2023-04-15T06:23:38;0.92;;;0.91;;
23668;SDS011;12011;47.422;15.018;2023-04-15T06:26:12;0.93;;;0.92;;
23668;SDS011;12011;47.422;15.018;2023-04-15T06:28:43;0.93;;;0.92;;
23668;SDS011;12011;47.422;15.018;2023-04-15T06:31:16;1.00;;;0.99;;
23668;SDS011;12011;47.422;15.018;2023-04-15T06:33:47;1.06;;;1.05;;
23668;SDS011;12011;47.422;15.018;2023-04-15T06:36:18;0.98;;;0.97;;
23668;SDS011;12011;47.422;15.018;2023-04-15T06:38:49;1.11;;;1.10;;
23668;SDS011;12011;47.422;15.018;2023-04-15T06:41:19;1.09;;;1.07;;
23668;SDS011;12011;47.422;15.018;2023-04-15T06:43:50;0.92;;;0.90;;
23668;SDS011;12011;47.422;15.018;2023-04-15T06:46:23;0.77;;;0.75;;
23668;SDS011;12011;47.422;15.018;2023-04-15T06:48:54;0.89;;;0.86;;
23668;SDS011;12011;47.422;15.018;2023-04-15T06:51:25;0.87;;;0.84;;
23668;SDS011;12011;47.422;15.018;2023-04-15T06:53:56;0.91;;;0.89;;
23668;SDS011;12011;47.422;15.018;2023-04-15T06:56:26;0.54;;;0.52;;
23668;SDS011;12011;47.422;15.018;2023-04-15T06:58:58;0.41;;;0.40;;
23668;SDS011;12011;47.422;15.018;2023-04-15T07:01:32;0.49;;;0.48;;
23668;SDS011;12011;47.422;15.018;2023-04-15T07:04:03;0.52;;;0.51;;
23668;SDS011;12011;47.422;15.018;2023-04-15T07:06:34;0.73;;;0.72;;
23668;SDS011;12011;47.422;15.018;2023-04-15T07:09:07;0.72;;;0.71;;
23668;SDS011;12011;47.422;15.018;2023-04-15T07:11:41;0.68;;;0.68;;
23668;SDS011;12011;47.422;15.018;2023-04-15T07:14:12;0.74;;;0.74;;
23668;SDS011;12011;47.422;15.018;2023-04-15T07:16:45;0.70;;;0.69;;
23668;SDS011;12011;47.422;15.018;2023-04-15T07:19:16;1.26;;;1.26;;
23668;SDS011;12011;47.422;15.018;2023-04-15T07:21:48;2.37;;;2.35;;
23668;SDS011;12011;47.422;15.018;2023-04-15T07:24:19;2.65;;;2.63;;
23668;SDS011;12011;47.422;15.018;2023-04-15T07:26:52;2.50;;;2.46;;
23668;SDS011;12011;47.422;15.018;2023-04-15T07:29:26;2.50;;;2.45;;
23668;SDS011;12011;47.422;15.018;2023-04-15T07:32:01;1.73;;;1.67;;
23668;SDS011;12011;47.422;15.018;2023-04-15T07:34:33;1.03;;;1.01;;
23668;SDS011;12011;47.422;15.018;2023-04-15T07:37:05;1.15;;;1.13;;
23668;SDS011;12011;47.422;15.018;2023-04-15T07:39:36;1.19;;;1.18;;
23668;SDS011;12011;47.422;15.018;2023-04-15T07:42:07;1.23;;;1.23;;
23668;SDS011;12011;47.422;15.018;2023-04-15T07:44:41;1.26;;;1.26;;
23668;SDS011;12011;47.422;15.018;2023-04-15T07:47:14;1.97;;;1.97;;
23668;SDS011;12011;47.422;15.018;2023-04-15T07:49:45;2.54;;;2.51;;
23668;SDS011;12011;47.422;15.018;2023-04-15T07:52:17;2.05;;;2.00;;
23668;SDS011;12011;47.422;15.018;2023-04-15T07:54:48;3.63;;;3.48;;
23668;SDS011;12011;47.422;15.018;2023-04-15T07:57:22;4.29;;;3.94;;
23668;SDS011;12011;47.422;15.018;2023-04-15T07:59:53;3.32;;;2.99;;
23668;SDS011;12011;47.422;15.018;2023-04-15T08:02:26;2.36;;;2.14;;
23668;SDS011;12011;47.422;15.018;2023-04-15T08:04:57;1.64;;;1.48;;
23668;SDS011;12011;47.422;15.018;2023-04-15T08:07:29;1.56;;;1.44;;
23668;SDS011;12011;47.422;15.018;2023-04-15T08:09:59;2.80;;;2.62;;
23668;SDS011;12011;47.422;15.018;2023-04-15T08:12:30;1.23;;;1.14;;
23668;SDS011;12011;47.422;15.018;2023-04-15T08:15:01;1.10;;;1.05;;
23668;SDS011;12011;47.422;15.018;2023-04-15T08:17:36;1.07;;;1.04;;
23668;SDS011;12011;47.422;15.018;2023-04-15T08:20:07;1.09;;;1.07;;
23668;SDS011;12011;47.422;15.018;2023-04-15T08:22:40;3.70;;;3.64;;
23668;SDS011;12011;47.422;15.018;2023-04-15T08:25:11;1.11;;;1.09;;
23668;SDS011;12011;47.422;15.018;2023-04-15T08:27:41;0.85;;;0.84;;
23668;SDS011;12011;47.422;15.018;2023-04-15T08:30:12;0.85;;;0.84;;
23668;SDS011;12011;47.422;15.018;2023-04-15T08:32:46;0.90;;;0.89;;
23668;SDS011;12011;47.422;15.018;2023-04-15T08:35:20;1.02;;;1.02;;
23668;SDS011;12011;47.422;15.018;2023-04-15T08:37:51;0.88;;;0.88;;
23668;SDS011;12011;47.422;15.018;2023-04-15T08:40:23;1.04;;;1.04;;
23668;SDS011;12011;47.422;15.018;2023-04-15T08:43:10;1.02;;;1.02;;
23668;SDS011;12011;47.422;15.018;2023-04-15T08:45:50;0.95;;;0.95;;
23668;SDS011;12011;47.422;15.018;2023-04-15T08:48:27;0.84;;;0.84;;
23668;SDS011;12011;47.422;15.018;2023-04-15T08:51:01;0.87;;;0.87;;
23668;SDS011;12011;47.422;15.018;2023-04-15T08:53:33;0.86;;;0.86;;
23668;SDS011;12011;47.422;15.018;2023-04-15T08:56:04;0.79;;;0.79;;
23668;SDS011;12011;47.422;15.018;2023-04-15T08:58:38;1.16;;;1.16;;
23668;SDS011;12011;47.422;15.018;2023-04-15T09:01:10;0.95;;;0.95;;
23668;SDS011;12011;47.422;15.018;2023-04-15T09:03:45;0.98;;;0.98;;
23668;SDS011;12011;47.422;15.018;2023-04-15T09:06:20;1.00;;;0.99;;
23668;SDS011;12011;47.422;15.018;2023-04-15T09:08:51;1.02;;;1.02;;
23668;SDS011;12011;47.422;15.018;2023-04-15T09:11:23;0.94;;;0.94;;
23668;SDS011;12011;47.422;15.018;2023-04-15T09:13:54;0.97;;;0.97;;
23668;SDS011;12011;47.422;15.018;2023-04-15T09:16:26;1.00;;;1.00;;
23668;SDS011;12011;47.422;15.018;2023-04-15T09:19:00;1.01;;;1.01;;
23668;SDS011;12011;47.422;15.018;2023-04-15T09:21:52;1.07;;;1.06;;
23668;SDS011;12011;47.422;15.018;2023-04-15T09:24:32;0.93;;;0.93;;
23668;SDS011;12011;47.422;15.018;2023-04-15T09:27:09;1.01;;;1.01;;
23668;SDS011;12011;47.422;15.018;2023-04-15T09:29:40;1.14;;;1.14;;
23668;SDS011;12011;47.422;15.018;2023-04-15T09:32:11;1.04;;;1.04;;
23668;SDS011;12011;47.422;15.018;2023-04-15T09:34:46;1.07;;;1.07;;
23668;SDS011;12011;47.422;15.018;2023-04-15T09:37:16;1.09;;;1.09;;
23668;SDS011;12011;47.422;15.018;2023-04-15T09:39:48;1.07;;;1.07;;
23668;SDS011;12011;47.422;15.018;2023-04-15T09:42:21;1.17;;;1.16;;
23668;SDS011;12011;47.422;15.018;2023-04-15T09:44:53;1.22;;;1.21;;
23668;SDS011;12011;47.422;15.018;2023-04-15T09:47:26;0.96;;;0.95;;
23668;SDS011;12011;47.422;15.018;2023-04-15T09:50:00;0.93;;;0.92;;
23668;SDS011;12011;47.422;15.018;2023-04-15T09:52:32;0.84;;;0.83;;
23668;SDS011;12011;47.422;15.018;2023-04-15T09:55:12;0.86;;;0.85;;
23668;SDS011;12011;47.422;15.018;2023-04-15T09:57:47;0.92;;;0.91;;
23668;SDS011;12011;47.422;15.018;2023-04-15T10:00:18;0.74;;;0.73;;
23668;SDS011;12011;47.422;15.018;2023-04-15T10:02:49;0.98;;;0.98;;
23668;SDS011;12011;47.422;15.018;2023-04-15T10:05:25;1.15;;;1.14;;
23668;SDS011;12011;47.422;15.018;2023-04-15T10:07:58;1.39;;;1.39;;
23668;SDS011;12011;47.422;15.018;2023-04-15T10:10:30;1.20;;;1.20;;
23668;SDS011;12011;47.422;15.018;2023-04-15T10:13:01;0.86;;;0.86;;
23668;SDS011;12011;47.422;15.018;2023-04-15T10:15:33;0.97;;;0.97;;
23668;SDS011;12011;47.422;15.018;2023-04-15T10:18:05;0.95;;;0.95;;
23668;SDS011;12011;47.422;15.018;2023-04-15T10:20:41;0.88;;;0.88;;
23668;SDS011;12011;47.422;15.018;2023-04-15T10:23:13;0.66;;;0.66;;
23668;SDS011;12011;47.422;15.018;2023-04-15T10:25:46;0.75;;;0.75;;
23668;SDS011;12011;47.422;15.018;2023-04-15T10:28:21;0.75;;;0.75;;
23668;SDS011;12011;47.422;15.018;2023-04-15T10:30:52;0.83;;;0.83;;
23668;SDS011;12011;47.422;15.018;2023-04-15T10:33:23;0.94;;;0.94;;
23668;SDS011;12011;47.422;15.018;2023-04-15T10:35:58;0.83;;;0.83;;
23668;SDS011;12011;47.422;15.018;2023-04-15T10:38:33;0.56;;;0.56;;
23668;SDS011;12011;47.422;15.018;2023-04-15T10:41:17;0.53;;;0.53;;
23668;SDS011;12011;47.422;15.018;2023-04-15T10:43:50;0.48;;;0.48;;
23668;SDS011;12011;47.422;15.018;2023-04-15T10:46:33;0.50;;;0.50;;
23668;SDS011;12011;47.422;15.018;2023-04-15T10:49:07;0.45;;;0.45;;
23668;SDS011;12011;47.422;15.018;2023-04-15T10:51:43;0.42;;;0.42;;
23668;SDS011;12011;47.422;15.018;2023-04-15T10:54:17;0.40;;;0.40;;
23668;SDS011;12011;47.422;15.018;2023-04-15T10:57:08;0.42;;;0.42;;
23668;SDS011;12011;47.422;15.018;2023-04-15T11:02:43;0.44;;;0.44;;
23668;SDS011;12011;47.422;15.018;2023-04-15T11:05:16;0.42;;;0.42;;
23668;SDS011;12011;47.422;15.018;2023-04-15T11:07:52;0.32;;;0.32;;
23668;SDS011;12011;47.422;15.018;2023-04-15T11:13:26;0.35;;;0.35;;
23668;SDS011;12011;47.422;15.018;2023-04-15T11:15:59;0.29;;;0.29;;
23668;SDS011;12011;47.422;15.018;2023-04-15T11:18:32;0.21;;;0.21;;
23668;SDS011;12011;47.422;15.018;2023-04-15T11:21:04;0.31;;;0.31;;
23668;SDS011;12011;47.422;15.018;2023-04-15T11:23:40;0.25;;;0.25;;
23668;SDS011;12011;47.422;15.018;2023-04-15T11:26:13;0.28;;;0.28;;
23668;SDS011;12011;47.422;15.018;2023-04-15T11:28:44;0.27;;;0.27;;
23668;SDS011;12011;47.422;15.018;2023-04-15T11:31:15;0.44;;;0.44;;
23668;SDS011;12011;47.422;15.018;2023-04-15T11:33:53;0.36;;;0.36;;
23668;SDS011;12011;47.422;15.018;2023-04-15T11:36:26;0.38;;;0.38;;
23668;SDS011;12011;47.422;15.018;2023-04-15T11:39:03;0.40;;;0.40;;
23668;SDS011;12011;47.422;15.018;2023-04-15T11:41:40;0.28;;;0.28;;
23668;SDS011;12011;47.422;15.018;2023-04-15T11:44:15;0.32;;;0.32;;
23668;SDS011;12011;47.422;15.018;2023-04-15T11:46:46;0.18;;;0.18;;
23668;SDS011;12011;47.422;15.018;2023-04-15T11:49:27;0.26;;;0.26;;
23668;SDS011;12011;47.422;15.018;2023-04-15T11:51:59;0.26;;;0.26;;
23668;SDS011;12011;47.422;15.018;2023-04-15T11:54:32;0.19;;;0.19;;
23668;SDS011;12011;47.422;15.018;2023-04-15T11:57:02;0.22;;;0.22;;
23668;SDS011;12011;47.422;15.018;2023-04-15T11:59:40;0.20;;;0.20;;
23668;SDS011;12011;47.422;15.018;2023-04-15T12:02:10;0.27;;;0.27;;
23668;SDS011;12011;47.422;15.018;2023-04-15T12:04:40;0.27;;;0.27;;
23668;SDS011;12011;47.422;15.018;2023-04-15T12:07:10;0.24;;;0.24;;
23668;SDS011;12011;47.422;15.018;2023-04-15T12:09:42;0.14;;;0.14;;
23668;SDS011;12011;47.422;15.018;2023-04-15T12:12:25;0.30;;;0.30;;
23668;SDS011;12011;47.422;15.018;2023-04-15T12:14:55;0.23;;;0.23;;
23668;SDS011;12011;47.422;15.018;2023-04-15T12:17:25;0.17;;;0.17;;
23668;SDS011;12011;47.422;15.018;2023-04-15T12:19:55;0.19;;;0.19;;
23668;SDS011;12011;47.422;15.018;2023-04-15T12:22:24;0.28;;;0.28;;
23668;SDS011;12011;47.422;15.018;2023-04-15T12:24:57;0.22;;;0.22;;
23668;SDS011;12011;47.422;15.018;2023-04-15T12:27:27;0.24;;;0.24;;
23668;SDS011;12011;47.422;15.018;2023-04-15T12:30:02;0.28;;;0.28;;
23668;SDS011;12011;47.422;15.018;2023-04-15T12:32:34;0.28;;;0.28;;
23668;SDS011;12011;47.422;15.018;2023-04-15T12:35:04;0.14;;;0.14;;
23668;SDS011;12011;47.422;15.018;2023-04-15T12:37:37;0.13;;;0.13;;
23668;SDS011;12011;47.422;15.018;2023-04-15T12:40:09;0.22;;;0.22;;
23668;SDS011;12011;47.422;15.018;2023-04-15T12:42:39;0.17;;;0.17;;
23668;SDS011;12011;47.422;15.018;2023-04-15T12:45:09;0.15;;;0.15;;
23668;SDS011;12011;47.422;15.018;2023-04-15T12:47:39;0.15;;;0.15;;
23668;SDS011;12011;47.422;15.018;2023-04-15T12:50:09;0.15;;;0.15;;
23668;SDS011;12011;47.422;15.018;2023-04-15T12:52:38;0.15;;;0.15;;
23668;SDS011;12011;47.422;15.018;2023-04-15T12:55:11;0.19;;;0.19;;
23668;SDS011;12011;47.422;15.018;2023-04-15T12:57:41;0.11;;;0.11;;
23668;SDS011;12011;47.422;15.018;2023-04-15T13:00:11;0.16;;;0.16;;
23668;SDS011;12011;47.422;15.018;2023-04-15T13:02:42;0.11;;;0.11;;
23668;SDS011;12011;47.422;15.018;2023-04-15T13:05:14;0.10;;;0.10;;
23668;SDS011;12011;47.422;15.018;2023-04-15T13:07:44;0.19;;;0.19;;
23668;SDS011;12011;47.422;15.018;2023-04-15T13:10:16;0.10;;;0.10;;
23668;SDS011;12011;47.422;15.018;2023-04-15T13:12:47;0.07;;;0.07;;
23668;SDS011;12011;47.422;15.018;2023-04-15T13:15:18;0.07;;;0.07;;
23668;SDS011;12011;47.422;15.018;2023-04-15T13:17:47;0.16;;;0.16;;
23668;SDS011;12011;47.422;15.018;2023-04-15T13:20:17;0.08;;;0.08;;
23668;SDS011;12011;47.422;15.018;2023-04-15T13:22:47;0.11;;;0.11;;
23668;SDS011;12011;47.422;15.018;2023-04-15T13:25:19;0.12;;;0.12;;
23668;SDS011;12011;47.422;15.018;2023-04-15T13:27:50;0.18;;;0.18;;
23668;SDS011;12011;47.422;15.018;2023-04-15T13:30:20;0.09;;;0.09;;
23668;SDS011;12011;47.422;15.018;2023-04-15T13:32:50;0.09;;;0.09;;
23668;SDS011;12011;47.422;15.018;2023-04-15T13:35:22;0.16;;;0.16;;
23668;SDS011;12011;47.422;15.018;2023-04-15T13:37:52;0.14;;;0.14;;
23668;SDS011;12011;47.422;15.018;2023-04-15T13:40:25;0.13;;;0.13;;
23668;SDS011;12011;47.422;15.018;2023-04-15T13:42:54;0.13;;;0.13;;
23668;SDS011;12011;47.422;15.018;2023-04-15T13:45:24;0.11;;;0.11;;
23668;SDS011;12011;47.422;15.018;2023-04-15T13:47:54;0.15;;;0.15;;
23668;SDS011;12011;47.422;15.018;2023-04-15T13:50:24;0.12;;;0.12;;
23668;SDS011;12011;47.422;15.018;2023-04-15T13:52:54;0.17;;;0.17;;
23668;SDS011;12011;47.422;15.018;2023-04-15T13:55:27;0.11;;;0.11;;
23668;SDS011;12011;47.422;15.018;2023-04-15T13:58:01;0.14;;;0.14;;
23668;SDS011;12011;47.422;15.018;2023-04-15T14:00:30;0.14;;;0.14;;
23668;SDS011;12011;47.422;15.018;2023-04-15T14:03:00;0.15;;;0.15;;
23668;SDS011;12011;47.422;15.018;2023-04-15T14:05:29;0.15;;;0.15;;
23668;SDS011;12011;47.422;15.018;2023-04-15T14:07:59;0.10;;;0.10;;
23668;SDS011;12011;47.422;15.018;2023-04-15T14:10:32;0.14;;;0.14;;
23668;SDS011;12011;47.422;15.018;2023-04-15T14:13:01;0.13;;;0.13;;
23668;SDS011;12011;47.422;15.018;2023-04-15T14:15:30;0.13;;;0.13;;
23668;SDS011;12011;47.422;15.018;2023-04-15T14:18:00;0.16;;;0.16;;
23668;SDS011;12011;47.422;15.018;2023-04-15T14:20:30;0.08;;;0.08;;
23668;SDS011;12011;47.422;15.018;2023-04-15T14:23:00;0.17;;;0.17;;
23668;SDS011;12011;47.422;15.018;2023-04-15T14:25:32;0.10;;;0.10;;
23668;SDS011;12011;47.422;15.018;2023-04-15T14:28:04;0.10;;;0.10;;
23668;SDS011;12011;47.422;15.018;2023-04-15T14:30:33;0.10;;;0.10;;
23668;SDS011;12011;47.422;15.018;2023-04-15T14:33:05;0.10;;;0.10;;
23668;SDS011;12011;47.422;15.018;2023-04-15T14:35:34;0.18;;;0.18;;
23668;SDS011;12011;47.422;15.018;2023-04-15T14:38:04;0.17;;;0.17;;
23668;SDS011;12011;47.422;15.018;2023-04-15T14:40:38;0.10;;;0.10;;
23668;SDS011;12011;47.422;15.018;2023-04-15T14:43:09;0.11;;;0.11;;
23668;SDS011;12011;47.422;15.018;2023-04-15T14:45:38;0.14;;;0.14;;
23668;SDS011;12011;47.422;15.018;2023-04-15T14:48:09;0.14;;;0.14;;
23668;SDS011;12011;47.422;15.018;2023-04-15T14:50:39;0.16;;;0.16;;
23668;SDS011;12011;47.422;15.018;2023-04-15T14:53:08;0.11;;;0.11;;
23668;SDS011;12011;47.422;15.018;2023-04-15T14:55:41;0.10;;;0.10;;
23668;SDS011;12011;47.422;15.018;2023-04-15T14:58:10;0.17;;;0.17;;
23668;SDS011;12011;47.422;15.018;2023-04-15T15:00:42;0.10;;;0.10;;
23668;SDS011;12011;47.422;15.018;2023-04-15T15:03:12;0.14;;;0.14;;
23668;SDS011;12011;47.422;15.018;2023-04-15T15:05:42;0.08;;;0.08;;
23668;SDS011;12011;47.422;15.018;2023-04-15T15:08:13;0.17;;;0.17;;